sensor_id;sensor_type;location;lat;lon;timestamp;P1;durP1;ratioP1;P2;durP2;ratioP2
60344;SDS011;46188;52.324;8.032;2024-03-02T00:02:00;5.55;;;5.05;;
60344;SDS011;46188;52.324;8.032;2024-03-02T00:04:25;6.53;;;5.30;;
60344;SDS011;46188;52.324;8.032;2024-03-02T00:06:52;5.38;;;4.72;;
60344;SDS011;46188;52.324;8.032;2024-03-02T00:09:19;5.53;;;5.03;;
60344;SDS011;46188;52.324;8.032;2024-03-02T00:11:45;5.00;;;4.50;;
60344;SDS011;46188;52.324;8.032;2024-03-02T00:14:10;5.82;;;5.22;;
60344;SDS011;46188;52.324;8.032;2024-03-02T00:16:35;5.97;;;5.00;;
60344;SDS011;46188;52.324;8.032;2024-03-02T00:19:02;5.40;;;4.90;;
60344;SDS011;46188;52.324;8.032;2024-03-02T00:21:29;5.72;;;5.07;;
60344;SDS011;46188;52.324;8.032;2024-03-02T00:23:55;5.85;;;4.82;;
60344;SDS011;46188;52.324;8.032;2024-03-02T00:26:20;5.82;;;4.95;;
60344;SDS011;46188;52.324;8.032;2024-03-02T00:28:46;5.85;;;5.25;;
60344;SDS011;46188;52.324;8.032;2024-03-02T00:31:12;5.35;;;4.85;;
60344;SDS011;46188;52.324;8.032;2024-03-02T00:36:08;5.38;;;4.80;;
60344;SDS011;46188;52.324;8.032;2024-03-02T00:38:34;5.93;;;5.15;;
60344;SDS011;46188;52.324;8.032;2024-03-02T00:41:05;6.28;;;4.95;;
60344;SDS011;46188;52.324;8.032;2024-03-02T00:46:20;6.03;;;5.05;;
60344;SDS011;46188;52.324;8.032;2024-03-02T00:48:58;5.28;;;4.72;;
60344;SDS011;46188;52.324;8.032;2024-03-02T00:51:25;5.45;;;4.95;;
60344;SDS011;46188;52.324;8.032;2024-03-02T00:53:52;5.70;;;4.85;;
60344;SDS011;46188;52.324;8.032;2024-03-02T00:56:22;7.38;;;5.15;;
60344;SDS011;46188;52.324;8.032;2024-03-02T00:58:48;5.75;;;5.20;;
60344;SDS011;46188;52.324;8.032;2024-03-02T01:01:14;6.47;;;5.40;;
60344;SDS011;46188;52.324;8.032;2024-03-02T01:03:41;6.18;;;5.13;;
60344;SDS011;46188;52.324;8.032;2024-03-02T01:06:06;6.25;;;5.10;;
60344;SDS011;46188;52.324;8.032;2024-03-02T01:08:32;6.32;;;5.47;;
60344;SDS011;46188;52.324;8.032;2024-03-02T01:10:57;5.50;;;5.00;;
60344;SDS011;46188;52.324;8.032;2024-03-02T01:13:23;6.03;;;5.50;;
60344;SDS011;46188;52.324;8.032;2024-03-02T01:15:51;5.85;;;5.22;;
60344;SDS011;46188;52.324;8.032;2024-03-02T01:18:17;6.43;;;5.68;;
60344;SDS011;46188;52.324;8.032;2024-03-02T01:20:42;6.55;;;5.35;;
60344;SDS011;46188;52.324;8.032;2024-03-02T01:23:07;7.00;;;5.65;;
60344;SDS011;46188;52.324;8.032;2024-03-02T01:25:32;5.70;;;5.10;;
60344;SDS011;46188;52.324;8.032;2024-03-02T01:27:58;6.28;;;5.40;;
60344;SDS011;46188;52.324;8.032;2024-03-02T01:30:23;5.85;;;5.20;;
60344;SDS011;46188;52.324;8.032;2024-03-02T01:32:48;6.03;;;5.07;;
60344;SDS011;46188;52.324;8.032;2024-03-02T01:35:13;6.65;;;5.45;;
60344;SDS011;46188;52.324;8.032;2024-03-02T01:37:40;6.38;;;5.70;;
60344;SDS011;46188;52.324;8.032;2024-03-02T01:40:05;6.40;;;5.70;;
60344;SDS011;46188;52.324;8.032;2024-03-02T01:42:34;7.63;;;5.80;;
60344;SDS011;46188;52.324;8.032;2024-03-02T01:45:05;7.10;;;5.68;;
60344;SDS011;46188;52.324;8.032;2024-03-02T01:47:31;6.10;;;5.50;;
60344;SDS011;46188;52.324;8.032;2024-03-02T01:49:57;5.97;;;5.38;;
60344;SDS011;46188;52.324;8.032;2024-03-02T01:52:23;6.45;;;5.78;;
60344;SDS011;46188;52.324;8.032;2024-03-02T01:54:48;6.93;;;5.90;;
60344;SDS011;46188;52.324;8.032;2024-03-02T01:57:13;6.93;;;5.80;;
60344;SDS011;46188;52.324;8.032;2024-03-02T01:59:39;6.10;;;5.50;;
60344;SDS011;46188;52.324;8.032;2024-03-02T02:02:04;8.30;;;6.30;;
60344;SDS011;46188;52.324;8.032;2024-03-02T02:04:29;6.15;;;5.55;;
60344;SDS011;46188;52.324;8.032;2024-03-02T02:06:55;6.75;;;5.65;;
60344;SDS011;46188;52.324;8.032;2024-03-02T02:09:21;7.95;;;5.93;;
60344;SDS011;46188;52.324;8.032;2024-03-02T02:11:46;5.88;;;5.28;;
60344;SDS011;46188;52.324;8.032;2024-03-02T02:14:12;5.95;;;5.35;;
60344;SDS011;46188;52.324;8.032;2024-03-02T02:16:37;6.20;;;5.60;;
60344;SDS011;46188;52.324;8.032;2024-03-02T02:19:02;8.73;;;6.32;;
60344;SDS011;46188;52.324;8.032;2024-03-02T02:21:28;7.53;;;5.93;;
60344;SDS011;46188;52.324;8.032;2024-03-02T02:23:53;7.22;;;6.10;;
60344;SDS011;46188;52.324;8.032;2024-03-02T02:26:18;7.28;;;6.03;;
60344;SDS011;46188;52.324;8.032;2024-03-02T02:28:44;8.23;;;5.65;;
60344;SDS011;46188;52.324;8.032;2024-03-02T02:31:12;7.03;;;5.75;;
60344;SDS011;46188;52.324;8.032;2024-03-02T02:33:41;9.88;;;5.68;;
60344;SDS011;46188;52.324;8.032;2024-03-02T02:36:06;7.07;;;6.07;;
60344;SDS011;46188;52.324;8.032;2024-03-02T02:38:32;7.18;;;5.93;;
60344;SDS011;46188;52.324;8.032;2024-03-02T02:40:59;6.32;;;5.70;;
60344;SDS011;46188;52.324;8.032;2024-03-02T02:43:25;8.13;;;5.63;;
60344;SDS011;46188;52.324;8.032;2024-03-02T02:45:50;7.78;;;6.20;;
60344;SDS011;46188;52.324;8.032;2024-03-02T02:48:15;6.55;;;5.63;;
60344;SDS011;46188;52.324;8.032;2024-03-02T02:50:41;8.35;;;6.35;;
60344;SDS011;46188;52.324;8.032;2024-03-02T02:53:06;8.48;;;5.97;;
60344;SDS011;46188;52.324;8.032;2024-03-02T02:55:34;7.68;;;5.80;;
60344;SDS011;46188;52.324;8.032;2024-03-02T02:57:59;7.15;;;5.72;;
60344;SDS011;46188;52.324;8.032;2024-03-02T03:00:25;9.00;;;6.30;;
60344;SDS011;46188;52.324;8.032;2024-03-02T03:02:50;7.43;;;5.95;;
60344;SDS011;46188;52.324;8.032;2024-03-02T03:05:15;7.47;;;6.05;;
60344;SDS011;46188;52.324;8.032;2024-03-02T03:07:41;8.23;;;6.05;;
60344;SDS011;46188;52.324;8.032;2024-03-02T03:10:07;8.10;;;6.35;;
60344;SDS011;46188;52.324;8.032;2024-03-02T03:12:33;9.55;;;6.18;;
60344;SDS011;46188;52.324;8.032;2024-03-02T03:14:59;8.73;;;6.75;;
60344;SDS011;46188;52.324;8.032;2024-03-02T03:17:25;7.30;;;6.28;;
60344;SDS011;46188;52.324;8.032;2024-03-02T03:19:50;7.72;;;6.32;;
60344;SDS011;46188;52.324;8.032;2024-03-02T03:22:16;8.18;;;6.60;;
60344;SDS011;46188;52.324;8.032;2024-03-02T03:24:41;8.77;;;6.38;;
60344;SDS011;46188;52.324;8.032;2024-03-02T03:27:06;9.15;;;6.20;;
60344;SDS011;46188;52.324;8.032;2024-03-02T03:29:32;10.95;;;6.53;;
60344;SDS011;46188;52.324;8.032;2024-03-02T03:31:57;7.20;;;6.38;;
60344;SDS011;46188;52.324;8.032;2024-03-02T03:34:22;9.10;;;6.32;;
60344;SDS011;46188;52.324;8.032;2024-03-02T03:36:47;7.93;;;6.40;;
60344;SDS011;46188;52.324;8.032;2024-03-02T03:39:13;7.80;;;6.13;;
60344;SDS011;46188;52.324;8.032;2024-03-02T03:41:38;8.40;;;6.07;;
60344;SDS011;46188;52.324;8.032;2024-03-02T03:44:05;8.20;;;6.45;;
60344;SDS011;46188;52.324;8.032;2024-03-02T03:46:31;9.10;;;6.95;;
60344;SDS011;46188;52.324;8.032;2024-03-02T03:48:56;13.23;;;6.95;;
60344;SDS011;46188;52.324;8.032;2024-03-02T03:51:21;9.30;;;6.45;;
60344;SDS011;46188;52.324;8.032;2024-03-02T03:53:47;7.78;;;6.57;;
60344;SDS011;46188;52.324;8.032;2024-03-02T03:56:13;10.85;;;7.32;;
60344;SDS011;46188;52.324;8.032;2024-03-02T03:58:38;9.98;;;6.60;;
60344;SDS011;46188;52.324;8.032;2024-03-02T04:01:04;8.50;;;6.85;;
60344;SDS011;46188;52.324;8.032;2024-03-02T04:03:29;8.82;;;6.30;;
60344;SDS011;46188;52.324;8.032;2024-03-02T04:05:55;10.30;;;6.20;;
60344;SDS011;46188;52.324;8.032;2024-03-02T04:08:20;8.90;;;6.57;;
60344;SDS011;46188;52.324;8.032;2024-03-02T04:10:45;8.45;;;5.88;;
60344;SDS011;46188;52.324;8.032;2024-03-02T04:13:11;7.60;;;6.07;;
60344;SDS011;46188;52.324;8.032;2024-03-02T04:15:37;6.60;;;5.68;;
60344;SDS011;46188;52.324;8.032;2024-03-02T04:18:02;7.68;;;6.05;;
60344;SDS011;46188;52.324;8.032;2024-03-02T04:20:27;7.43;;;6.50;;
60344;SDS011;46188;52.324;8.032;2024-03-02T04:22:52;8.85;;;6.57;;
60344;SDS011;46188;52.324;8.032;2024-03-02T04:25:18;9.05;;;6.72;;
60344;SDS011;46188;52.324;8.032;2024-03-02T04:27:44;7.72;;;6.43;;
60344;SDS011;46188;52.324;8.032;2024-03-02T04:30:10;7.97;;;6.50;;
60344;SDS011;46188;52.324;8.032;2024-03-02T04:32:35;9.18;;;6.30;;
60344;SDS011;46188;52.324;8.032;2024-03-02T04:35:01;7.95;;;6.15;;
60344;SDS011;46188;52.324;8.032;2024-03-02T04:37:27;9.50;;;6.20;;
60344;SDS011;46188;52.324;8.032;2024-03-02T04:39:52;9.98;;;6.85;;
60344;SDS011;46188;52.324;8.032;2024-03-02T04:42:17;9.88;;;6.53;;
60344;SDS011;46188;52.324;8.032;2024-03-02T04:44:42;9.57;;;6.78;;
60344;SDS011;46188;52.324;8.032;2024-03-02T04:47:08;8.68;;;6.03;;
60344;SDS011;46188;52.324;8.032;2024-03-02T04:49:33;8.50;;;6.30;;
60344;SDS011;46188;52.324;8.032;2024-03-02T04:51:58;7.72;;;5.70;;
60344;SDS011;46188;52.324;8.032;2024-03-02T04:54:23;8.48;;;6.95;;
60344;SDS011;46188;52.324;8.032;2024-03-02T04:56:49;8.60;;;6.45;;
60344;SDS011;46188;52.324;8.032;2024-03-02T04:59:15;8.93;;;6.68;;
60344;SDS011;46188;52.324;8.032;2024-03-02T05:01:43;9.10;;;6.75;;
60344;SDS011;46188;52.324;8.032;2024-03-02T05:04:09;8.80;;;6.80;;
60344;SDS011;46188;52.324;8.032;2024-03-02T05:06:36;8.57;;;6.15;;
60344;SDS011;46188;52.324;8.032;2024-03-02T05:09:03;10.35;;;6.55;;
60344;SDS011;46188;52.324;8.032;2024-03-02T05:11:28;8.30;;;6.07;;
60344;SDS011;46188;52.324;8.032;2024-03-02T05:14:09;7.97;;;5.88;;
60344;SDS011;46188;52.324;8.032;2024-03-02T05:16:35;9.07;;;6.40;;
60344;SDS011;46188;52.324;8.032;2024-03-02T05:19:00;8.57;;;5.82;;
60344;SDS011;46188;52.324;8.032;2024-03-02T05:21:26;8.60;;;6.93;;
60344;SDS011;46188;52.324;8.032;2024-03-02T05:23:51;8.35;;;6.22;;
60344;SDS011;46188;52.324;8.032;2024-03-02T05:26:16;6.88;;;5.72;;
60344;SDS011;46188;52.324;8.032;2024-03-02T05:28:42;10.60;;;6.00;;
60344;SDS011;46188;52.324;8.032;2024-03-02T05:31:10;8.15;;;6.22;;
60344;SDS011;46188;52.324;8.032;2024-03-02T05:33:39;10.35;;;6.13;;
60344;SDS011;46188;52.324;8.032;2024-03-02T05:36:04;9.63;;;6.63;;
60344;SDS011;46188;52.324;8.032;2024-03-02T05:38:30;9.35;;;6.35;;
60344;SDS011;46188;52.324;8.032;2024-03-02T05:40:55;7.60;;;5.75;;
60344;SDS011;46188;52.324;8.032;2024-03-02T05:43:20;11.00;;;6.95;;
60344;SDS011;46188;52.324;8.032;2024-03-02T05:45:46;7.03;;;5.95;;
60344;SDS011;46188;52.324;8.032;2024-03-02T05:48:11;7.10;;;5.35;;
60344;SDS011;46188;52.324;8.032;2024-03-02T05:50:36;8.52;;;6.15;;
60344;SDS011;46188;52.324;8.032;2024-03-02T05:53:01;7.65;;;6.00;;
60344;SDS011;46188;52.324;8.032;2024-03-02T05:55:27;8.20;;;6.07;;
60344;SDS011;46188;52.324;8.032;2024-03-02T05:57:52;8.32;;;6.60;;
60344;SDS011;46188;52.324;8.032;2024-03-02T06:00:23;11.07;;;6.63;;
60344;SDS011;46188;52.324;8.032;2024-03-02T06:02:48;7.60;;;6.32;;
60344;SDS011;46188;52.324;8.032;2024-03-02T06:05:14;7.05;;;5.60;;
60344;SDS011;46188;52.324;8.032;2024-03-02T06:07:40;7.82;;;5.80;;
60344;SDS011;46188;52.324;8.032;2024-03-02T06:10:05;9.77;;;6.07;;
60344;SDS011;46188;52.324;8.032;2024-03-02T06:12:32;8.13;;;6.43;;
60344;SDS011;46188;52.324;8.032;2024-03-02T06:14:57;9.25;;;6.30;;
60344;SDS011;46188;52.324;8.032;2024-03-02T06:17:22;8.55;;;6.97;;
60344;SDS011;46188;52.324;8.032;2024-03-02T06:19:48;9.55;;;7.25;;
60344;SDS011;46188;52.324;8.032;2024-03-02T06:22:13;9.90;;;7.72;;
60344;SDS011;46188;52.324;8.032;2024-03-02T06:24:38;9.10;;;6.82;;
60344;SDS011;46188;52.324;8.032;2024-03-02T06:27:04;8.45;;;6.60;;
60344;SDS011;46188;52.324;8.032;2024-03-02T06:29:32;9.95;;;7.00;;
60344;SDS011;46188;52.324;8.032;2024-03-02T06:31:57;11.77;;;7.32;;
60344;SDS011;46188;52.324;8.032;2024-03-02T06:34:23;10.95;;;7.05;;
60344;SDS011;46188;52.324;8.032;2024-03-02T06:36:48;8.25;;;6.80;;
60344;SDS011;46188;52.324;8.032;2024-03-02T06:39:13;10.68;;;6.72;;
60344;SDS011;46188;52.324;8.032;2024-03-02T06:41:38;10.38;;;7.60;;
60344;SDS011;46188;52.324;8.032;2024-03-02T06:44:04;10.02;;;7.50;;
60344;SDS011;46188;52.324;8.032;2024-03-02T06:46:30;9.20;;;7.43;;
60344;SDS011;46188;52.324;8.032;2024-03-02T06:48:55;10.27;;;7.72;;
60344;SDS011;46188;52.324;8.032;2024-03-02T06:51:21;11.02;;;7.20;;
60344;SDS011;46188;52.324;8.032;2024-03-02T06:53:46;11.27;;;7.70;;
60344;SDS011;46188;52.324;8.032;2024-03-02T06:56:11;11.68;;;8.18;;
60344;SDS011;46188;52.324;8.032;2024-03-02T06:58:37;9.40;;;7.00;;
60344;SDS011;46188;52.324;8.032;2024-03-02T07:01:02;10.63;;;7.82;;
60344;SDS011;46188;52.324;8.032;2024-03-02T07:03:27;9.48;;;7.82;;
60344;SDS011;46188;52.324;8.032;2024-03-02T07:05:52;9.98;;;7.57;;
60344;SDS011;46188;52.324;8.032;2024-03-02T07:08:18;9.88;;;7.63;;
60344;SDS011;46188;52.324;8.032;2024-03-02T07:10:43;10.95;;;8.15;;
60344;SDS011;46188;52.324;8.032;2024-03-02T07:13:08;9.70;;;7.68;;
60344;SDS011;46188;52.324;8.032;2024-03-02T07:15:33;9.73;;;7.28;;
60344;SDS011;46188;52.324;8.032;2024-03-02T07:18:02;10.70;;;7.43;;
60344;SDS011;46188;52.324;8.032;2024-03-02T07:20:28;10.63;;;8.50;;
60344;SDS011;46188;52.324;8.032;2024-03-02T07:22:53;15.48;;;8.35;;
60344;SDS011;46188;52.324;8.032;2024-03-02T07:25:18;13.60;;;8.70;;
60344;SDS011;46188;52.324;8.032;2024-03-02T07:27:43;10.68;;;8.20;;
60344;SDS011;46188;52.324;8.032;2024-03-02T07:30:09;11.82;;;7.82;;
60344;SDS011;46188;52.324;8.032;2024-03-02T07:32:36;12.45;;;8.55;;
60344;SDS011;46188;52.324;8.032;2024-03-02T07:35:01;10.93;;;8.27;;
60344;SDS011;46188;52.324;8.032;2024-03-02T07:37:28;11.77;;;8.80;;
60344;SDS011;46188;52.324;8.032;2024-03-02T07:39:53;11.80;;;8.80;;
60344;SDS011;46188;52.324;8.032;2024-03-02T07:42:19;15.88;;;9.80;;
60344;SDS011;46188;52.324;8.032;2024-03-02T07:44:44;11.07;;;8.65;;
60344;SDS011;46188;52.324;8.032;2024-03-02T07:47:10;14.18;;;9.00;;
60344;SDS011;46188;52.324;8.032;2024-03-02T07:49:36;13.63;;;9.23;;
60344;SDS011;46188;52.324;8.032;2024-03-02T07:52:01;15.15;;;9.75;;
60344;SDS011;46188;52.324;8.032;2024-03-02T07:54:26;13.18;;;9.13;;
60344;SDS011;46188;52.324;8.032;2024-03-02T07:56:52;11.98;;;8.80;;
60344;SDS011;46188;52.324;8.032;2024-03-02T07:59:17;10.25;;;8.27;;
60344;SDS011;46188;52.324;8.032;2024-03-02T08:01:43;13.15;;;9.38;;
60344;SDS011;46188;52.324;8.032;2024-03-02T08:04:08;13.75;;;9.48;;
60344;SDS011;46188;52.324;8.032;2024-03-02T08:06:33;12.10;;;9.13;;
60344;SDS011;46188;52.324;8.032;2024-03-02T08:08:59;11.00;;;8.55;;
60344;SDS011;46188;52.324;8.032;2024-03-02T08:11:26;12.13;;;8.63;;
60344;SDS011;46188;52.324;8.032;2024-03-02T08:13:56;11.00;;;8.02;;
60344;SDS011;46188;52.324;8.032;2024-03-02T08:16:22;12.20;;;8.48;;
60344;SDS011;46188;52.324;8.032;2024-03-02T08:18:48;11.93;;;8.50;;
60344;SDS011;46188;52.324;8.032;2024-03-02T08:21:14;10.98;;;8.93;;
60344;SDS011;46188;52.324;8.032;2024-03-02T08:23:40;14.60;;;8.77;;
60344;SDS011;46188;52.324;8.032;2024-03-02T08:26:07;13.00;;;8.63;;
60344;SDS011;46188;52.324;8.032;2024-03-02T08:28:36;9.43;;;7.65;;
60344;SDS011;46188;52.324;8.032;2024-03-02T08:31:02;9.77;;;6.57;;
60344;SDS011;46188;52.324;8.032;2024-03-02T08:33:31;9.32;;;7.22;;
60344;SDS011;46188;52.324;8.032;2024-03-02T08:35:56;8.27;;;6.50;;
60344;SDS011;46188;52.324;8.032;2024-03-02T08:38:21;8.15;;;6.82;;
60344;SDS011;46188;52.324;8.032;2024-03-02T08:40:47;9.10;;;6.75;;
60344;SDS011;46188;52.324;8.032;2024-03-02T08:43:12;8.05;;;7.10;;
60344;SDS011;46188;52.324;8.032;2024-03-02T08:45:38;8.75;;;6.82;;
60344;SDS011;46188;52.324;8.032;2024-03-02T08:48:04;8.07;;;6.47;;
60344;SDS011;46188;52.324;8.032;2024-03-02T08:50:32;8.23;;;6.40;;
60344;SDS011;46188;52.324;8.032;2024-03-02T08:52:57;6.72;;;5.90;;
60344;SDS011;46188;52.324;8.032;2024-03-02T08:55:22;9.15;;;6.80;;
60344;SDS011;46188;52.324;8.032;2024-03-02T08:57:48;7.35;;;6.05;;
60344;SDS011;46188;52.324;8.032;2024-03-02T09:00:15;7.40;;;5.90;;
60344;SDS011;46188;52.324;8.032;2024-03-02T09:02:43;8.65;;;5.55;;
60344;SDS011;46188;52.324;8.032;2024-03-02T09:05:09;7.05;;;5.95;;
60344;SDS011;46188;52.324;8.032;2024-03-02T09:07:34;7.53;;;5.78;;
60344;SDS011;46188;52.324;8.032;2024-03-02T09:10:00;6.00;;;5.50;;
60344;SDS011;46188;52.324;8.032;2024-03-02T09:12:25;6.00;;;5.50;;
60344;SDS011;46188;52.324;8.032;2024-03-02T09:14:50;7.35;;;5.45;;
60344;SDS011;46188;52.324;8.032;2024-03-02T09:17:15;6.07;;;5.40;;
60344;SDS011;46188;52.324;8.032;2024-03-02T09:19:41;6.75;;;6.15;;
60344;SDS011;46188;52.324;8.032;2024-03-02T09:22:06;6.75;;;6.10;;
60344;SDS011;46188;52.324;8.032;2024-03-02T09:24:32;6.10;;;5.50;;
60344;SDS011;46188;52.324;8.032;2024-03-02T09:26:58;6.88;;;6.13;;
60344;SDS011;46188;52.324;8.032;2024-03-02T09:29:23;6.25;;;5.65;;
60344;SDS011;46188;52.324;8.032;2024-03-02T09:31:49;6.03;;;5.40;;
60344;SDS011;46188;52.324;8.032;2024-03-02T09:34:15;5.68;;;5.18;;
60344;SDS011;46188;52.324;8.032;2024-03-02T09:36:41;6.03;;;5.30;;
60344;SDS011;46188;52.324;8.032;2024-03-02T09:39:09;5.80;;;5.20;;
60344;SDS011;46188;52.324;8.032;2024-03-02T09:41:36;5.78;;;5.18;;
60344;SDS011;46188;52.324;8.032;2024-03-02T09:44:02;6.20;;;5.55;;
60344;SDS011;46188;52.324;8.032;2024-03-02T09:46:27;6.55;;;5.95;;
60344;SDS011;46188;52.324;8.032;2024-03-02T09:48:53;6.82;;;6.15;;
60344;SDS011;46188;52.324;8.032;2024-03-02T09:51:19;8.85;;;6.30;;
60344;SDS011;46188;52.324;8.032;2024-03-02T09:53:44;5.95;;;5.45;;
60344;SDS011;46188;52.324;8.032;2024-03-02T09:56:11;6.05;;;5.45;;
60344;SDS011;46188;52.324;8.032;2024-03-02T09:58:36;6.38;;;5.78;;
60344;SDS011;46188;52.324;8.032;2024-03-02T10:01:05;6.60;;;5.85;;
60344;SDS011;46188;52.324;8.032;2024-03-02T10:03:31;7.18;;;5.53;;
60344;SDS011;46188;52.324;8.032;2024-03-02T10:06:16;5.95;;;5.28;;
60344;SDS011;46188;52.324;8.032;2024-03-02T10:08:47;5.68;;;5.18;;
60344;SDS011;46188;52.324;8.032;2024-03-02T10:11:28;5.68;;;5.10;;
60344;SDS011;46188;52.324;8.032;2024-03-02T10:16:34;6.15;;;5.55;;
60344;SDS011;46188;52.324;8.032;2024-03-02T10:19:14;5.72;;;5.22;;
60344;SDS011;46188;52.324;8.032;2024-03-02T10:21:40;5.45;;;5.05;;
60344;SDS011;46188;52.324;8.032;2024-03-02T10:24:06;5.88;;;5.38;;
60344;SDS011;46188;52.324;8.032;2024-03-02T10:26:32;6.95;;;5.80;;
60344;SDS011;46188;52.324;8.032;2024-03-02T10:28:57;6.45;;;5.10;;
60344;SDS011;46188;52.324;8.032;2024-03-02T10:31:24;5.82;;;4.90;;
60344;SDS011;46188;52.324;8.032;2024-03-02T10:33:52;5.47;;;5.07;;
60344;SDS011;46188;52.324;8.032;2024-03-02T10:36:19;5.90;;;5.35;;
60344;SDS011;46188;52.324;8.032;2024-03-02T10:38:45;5.82;;;5.22;;
60344;SDS011;46188;52.324;8.032;2024-03-02T10:41:12;5.20;;;4.47;;
60344;SDS011;46188;52.324;8.032;2024-03-02T10:43:41;5.20;;;4.80;;
60344;SDS011;46188;52.324;8.032;2024-03-02T10:46:07;5.18;;;4.78;;
60344;SDS011;46188;52.324;8.032;2024-03-02T10:48:33;6.07;;;5.57;;
60344;SDS011;46188;52.324;8.032;2024-03-02T10:51:01;6.18;;;5.40;;
60344;SDS011;46188;52.324;8.032;2024-03-02T10:53:27;5.80;;;5.20;;
60344;SDS011;46188;52.324;8.032;2024-03-02T10:55:53;5.22;;;4.82;;
60344;SDS011;46188;52.324;8.032;2024-03-02T10:58:27;5.10;;;4.68;;
60344;SDS011;46188;52.324;8.032;2024-03-02T11:00:59;6.70;;;4.90;;
60344;SDS011;46188;52.324;8.032;2024-03-02T11:03:27;10.52;;;5.30;;
60344;SDS011;46188;52.324;8.032;2024-03-02T11:05:56;6.03;;;5.40;;
60344;SDS011;46188;52.324;8.032;2024-03-02T11:08:23;5.88;;;5.35;;
60344;SDS011;46188;52.324;8.032;2024-03-02T11:10:51;6.22;;;5.57;;
60344;SDS011;46188;52.324;8.032;2024-03-02T11:13:24;5.60;;;5.10;;
60344;SDS011;46188;52.324;8.032;2024-03-02T11:15:56;5.63;;;5.13;;
60344;SDS011;46188;52.324;8.032;2024-03-02T11:18:44;5.47;;;5.03;;
60344;SDS011;46188;52.324;8.032;2024-03-02T11:21:10;5.88;;;5.28;;
60344;SDS011;46188;52.324;8.032;2024-03-02T11:23:36;6.15;;;5.55;;
60344;SDS011;46188;52.324;8.032;2024-03-02T11:26:17;5.60;;;5.10;;
60344;SDS011;46188;52.324;8.032;2024-03-02T11:31:11;6.20;;;5.07;;
60344;SDS011;46188;52.324;8.032;2024-03-02T11:33:36;5.47;;;4.97;;
60344;SDS011;46188;52.324;8.032;2024-03-02T11:36:02;5.40;;;4.90;;
60344;SDS011;46188;52.324;8.032;2024-03-02T11:38:28;5.47;;;5.07;;
60344;SDS011;46188;52.324;8.032;2024-03-02T11:40:55;4.75;;;4.35;;
60344;SDS011;46188;52.324;8.032;2024-03-02T11:43:21;5.25;;;4.70;;
60344;SDS011;46188;52.324;8.032;2024-03-02T11:45:46;5.10;;;4.70;;
60344;SDS011;46188;52.324;8.032;2024-03-02T11:48:13;5.95;;;5.18;;
60344;SDS011;46188;52.324;8.032;2024-03-02T11:50:40;4.47;;;4.18;;
60344;SDS011;46188;52.324;8.032;2024-03-02T11:53:13;4.90;;;4.50;;
60344;SDS011;46188;52.324;8.032;2024-03-02T11:55:39;4.80;;;4.28;;
60344;SDS011;46188;52.324;8.032;2024-03-02T11:58:11;5.10;;;4.70;;
60344;SDS011;46188;52.324;8.032;2024-03-02T12:00:37;5.03;;;4.63;;
60344;SDS011;46188;52.324;8.032;2024-03-02T12:03:04;5.60;;;5.10;;
60344;SDS011;46188;52.324;8.032;2024-03-02T12:05:31;5.18;;;4.68;;
60344;SDS011;46188;52.324;8.032;2024-03-02T12:08:00;5.10;;;4.70;;
60344;SDS011;46188;52.324;8.032;2024-03-02T12:10:27;5.22;;;4.80;;
60344;SDS011;46188;52.324;8.032;2024-03-02T12:13:06;5.95;;;4.38;;
60344;SDS011;46188;52.324;8.032;2024-03-02T12:15:36;4.75;;;4.35;;
60344;SDS011;46188;52.324;8.032;2024-03-02T12:18:02;5.28;;;4.80;;
60344;SDS011;46188;52.324;8.032;2024-03-02T12:20:29;5.50;;;4.93;;
60344;SDS011;46188;52.324;8.032;2024-03-02T12:22:56;5.40;;;5.00;;
60344;SDS011;46188;52.324;8.032;2024-03-02T12:25:23;5.80;;;5.30;;
60344;SDS011;46188;52.324;8.032;2024-03-02T12:27:50;6.10;;;5.60;;
60344;SDS011;46188;52.324;8.032;2024-03-02T12:30:19;5.72;;;5.32;;
60344;SDS011;46188;52.324;8.032;2024-03-02T12:32:45;5.93;;;5.38;;
60344;SDS011;46188;52.324;8.032;2024-03-02T12:35:10;7.10;;;5.53;;
60344;SDS011;46188;52.324;8.032;2024-03-02T12:37:46;7.22;;;4.95;;
60344;SDS011;46188;52.324;8.032;2024-03-02T12:40:13;6.20;;;5.50;;
60344;SDS011;46188;52.324;8.032;2024-03-02T12:42:39;6.45;;;5.85;;
60344;SDS011;46188;52.324;8.032;2024-03-02T12:45:06;5.47;;;5.00;;
60344;SDS011;46188;52.324;8.032;2024-03-02T12:47:33;6.07;;;5.40;;
60344;SDS011;46188;52.324;8.032;2024-03-02T12:49:59;6.40;;;5.80;;
60344;SDS011;46188;52.324;8.032;2024-03-02T12:52:24;5.82;;;5.25;;
60344;SDS011;46188;52.324;8.032;2024-03-02T12:54:50;5.40;;;5.00;;
60344;SDS011;46188;52.324;8.032;2024-03-02T12:57:18;5.30;;;4.90;;
60344;SDS011;46188;52.324;8.032;2024-03-02T12:59:47;6.00;;;5.28;;
60344;SDS011;46188;52.324;8.032;2024-03-02T13:02:19;6.28;;;5.07;;
60344;SDS011;46188;52.324;8.032;2024-03-02T13:04:51;5.18;;;4.75;;
60344;SDS011;46188;52.324;8.032;2024-03-02T13:07:18;6.00;;;5.40;;
60344;SDS011;46188;52.324;8.032;2024-03-02T13:09:45;6.47;;;4.82;;
60344;SDS011;46188;52.324;8.032;2024-03-02T13:12:11;5.05;;;4.60;;
60344;SDS011;46188;52.324;8.032;2024-03-02T13:14:36;4.43;;;4.13;;
60344;SDS011;46188;52.324;8.032;2024-03-02T13:17:01;4.07;;;3.78;;
60344;SDS011;46188;52.324;8.032;2024-03-02T13:19:30;4.40;;;4.10;;
60344;SDS011;46188;52.324;8.032;2024-03-02T13:21:55;4.55;;;3.92;;
60344;SDS011;46188;52.324;8.032;2024-03-02T13:24:22;4.82;;;4.53;;
60344;SDS011;46188;52.324;8.032;2024-03-02T13:26:50;5.70;;;5.20;;
60344;SDS011;46188;52.324;8.032;2024-03-02T13:29:20;5.78;;;5.28;;
60344;SDS011;46188;52.324;8.032;2024-03-02T13:31:45;5.07;;;4.68;;
60344;SDS011;46188;52.324;8.032;2024-03-02T13:34:11;5.47;;;4.97;;
60344;SDS011;46188;52.324;8.032;2024-03-02T13:36:36;5.65;;;5.22;;
60344;SDS011;46188;52.324;8.032;2024-03-02T13:39:01;5.63;;;5.10;;
60344;SDS011;46188;52.324;8.032;2024-03-02T13:41:27;5.22;;;4.72;;
60344;SDS011;46188;52.324;8.032;2024-03-02T13:43:53;5.38;;;4.78;;
60344;SDS011;46188;52.324;8.032;2024-03-02T13:46:18;5.10;;;4.70;;
60344;SDS011;46188;52.324;8.032;2024-03-02T13:48:43;5.45;;;4.97;;
60344;SDS011;46188;52.324;8.032;2024-03-02T13:51:09;6.27;;;5.17;;
60344;SDS011;46188;52.324;8.032;2024-03-02T13:53:34;5.60;;;5.10;;
60344;SDS011;46188;52.324;8.032;2024-03-02T13:55:59;5.72;;;5.13;;
60344;SDS011;46188;52.324;8.032;2024-03-02T13:58:25;5.47;;;4.97;;
60344;SDS011;46188;52.324;8.032;2024-03-02T14:00:50;5.75;;;5.30;;
60344;SDS011;46188;52.324;8.032;2024-03-02T14:03:15;5.80;;;5.25;;
60344;SDS011;46188;52.324;8.032;2024-03-02T14:05:40;5.32;;;4.85;;
60344;SDS011;46188;52.324;8.032;2024-03-02T14:08:06;5.60;;;5.10;;
60344;SDS011;46188;52.324;8.032;2024-03-02T14:10:31;5.25;;;4.75;;
60344;SDS011;46188;52.324;8.032;2024-03-02T14:12:56;5.63;;;5.13;;
60344;SDS011;46188;52.324;8.032;2024-03-02T14:15:22;5.73;;;5.10;;
60344;SDS011;46188;52.324;8.032;2024-03-02T14:17:48;5.57;;;5.03;;
60344;SDS011;46188;52.324;8.032;2024-03-02T14:20:13;5.80;;;5.30;;
60344;SDS011;46188;52.324;8.032;2024-03-02T14:22:39;6.60;;;4.90;;
60344;SDS011;46188;52.324;8.032;2024-03-02T14:25:05;5.53;;;5.03;;
60344;SDS011;46188;52.324;8.032;2024-03-02T14:27:31;5.85;;;5.05;;
60344;SDS011;46188;52.324;8.032;2024-03-02T14:29:56;4.90;;;4.50;;
60344;SDS011;46188;52.324;8.032;2024-03-02T14:32:21;5.40;;;4.90;;
60344;SDS011;46188;52.324;8.032;2024-03-02T14:34:47;4.60;;;4.20;;
60344;SDS011;46188;52.324;8.032;2024-03-02T14:37:13;4.22;;;3.83;;
60344;SDS011;46188;52.324;8.032;2024-03-02T14:39:39;4.38;;;3.97;;
60344;SDS011;46188;52.324;8.032;2024-03-02T14:42:04;4.00;;;3.70;;
60344;SDS011;46188;52.324;8.032;2024-03-02T14:44:29;4.28;;;3.80;;
60344;SDS011;46188;52.324;8.032;2024-03-02T14:46:55;4.18;;;3.88;;
60344;SDS011;46188;52.324;8.032;2024-03-02T14:49:22;4.55;;;3.78;;
60344;SDS011;46188;52.324;8.032;2024-03-02T14:51:47;4.85;;;4.45;;